MDPPMDSD

Guest
Details From MDPP - Puerto Plata Gregorio Luperon Intl
To MDSD - Las Americas Intl
Flight Number -
Tags generated
Created
Modified
Stats Distance 95 nm / 176 km
Max Altitude 9,700 ft / 2,957 m
Waypoints 5
Social Downloads 0
Likes 0
Share VATSIM

Download

Looking for another format? Having issues loading an existing format? Contact us
Advertisement - Login to hide

Notes

Basic altitude profile: - Ascent Rate: 2500ft/min - Ascent Speed: 250kts - Cruise Altitude: 35000ft - Cruise Speed: 420kts - Descent Rate: 1500ft/min - Descent Speed: 250kts Options: - Use NATs: yes - Use PACOTS: yes - Use low airways: yes - Use high airways: yes

Route

MDPP PISOR A554 CDO MDSD

ID Type Via Altitude Latitude Longitude Leg Dist Tot Dist Heading (true) Name
O MDPP APT - 0 ft / 0 m 19.75790˚ -70.57003˚ - 0 nm - Puerto Plata Gregorio Luperon Intl
PISOR FIX - 9,500 ft / 2,896 m 19.34556˚ -70.28861˚ 29 nm 29 nm 147° / 147° -
KODIX FIX A554 (AWY-LO) 9,700 ft / 2,957 m 19.13667˚ -70.14250˚ 15 nm 44 nm 147° / 147° -
CDO DME A554 (AWY-LO) 7,000 ft / 2,134 m 18.43293˚ -69.66733˚ 50 nm 94 nm 147° / 147° PUNTA CAUCEDO VOR-DME
O MDSD APT - 0 ft / 0 m 18.42966˚ -69.66893˚ 0 nm 94 nm 205° / 205° Las Americas Intl

Altitude Profile

Advertisement - Login to hide

MDPP

Details ICAO MDPP (POP)
Name Puerto Plata Gregorio Luperon Intl
Region Dominican Republic
Timezone America/Santo_Domingo (UTC-4.0)
Stats Elevation 15 ft / 5 m (AMSL)
Location 19.757900° -70.570035°
Runways 1
Magnetic Variation 11.227° W

METAR

MDPP 110900Z 00000KT 9999 FEW016 22/22 Q1014

Decode

TAF

Not found

Departure Runways

ID Width Length Bearing (true) Bearing (mag) Surface Threshold Offset Overrun Length
08 151 ft / 46 m 10,101 ft / 3,079 m 72.95° 84.18° Asphalt 0 ft / 0 m 0 ft / 0 m
26 151 ft / 46 m 10,101 ft / 3,079 m 252.95° 264.18° Asphalt 0 ft / 0 m 0 ft / 0 m

MDSD

Details ICAO MDSD (SDQ)
Name Las Americas Intl
Region Dominican Republic
Timezone America/Santo_Domingo (UTC-4.0)
Stats Elevation 59 ft / 18 m (AMSL)
Location 18.429662° -69.668925°
Runways 1
Magnetic Variation 11.536° W

METAR

MDSD 110900Z 00000KT 9999 FEW016 22/21 Q1013

Decode

TAF

Not found

Destination Runways

ID Width Length Bearing (true) Bearing (mag) Surface Threshold Offset Overrun Length
17 200 ft / 61 m 11,051 ft / 3,368 m 160.78° 172.32° Asphalt 0 ft / 0 m 0 ft / 0 m
35 200 ft / 61 m 11,051 ft / 3,368 m 340.79° 352.33° Asphalt 0 ft / 0 m 0 ft / 0 m

Approach Navaids

Runway Type Ident Frequency Range Bearing (true) Bearing (mag) Slope Elevation
17 Localiser ICDO 108.90 MHz 18 nm / 33 km 160.59° 172.12° - 58 ft / 18 m (AMSL)
17 Glidescope ICDO 108.90 MHz 10 nm / 19 km 160.78° 172.32° 3.00° 35 ft / 11 m (AMSL)
17 DME ICDO 108.90 MHz 18 nm / 33 km - - - 35 ft / 11 m (AMSL)

Popular Alternatives